Time;durP1;ratioP1;P1;durP2;ratioP2;P2;SDS_P1;SDS_P2;PMS_P1;PMS_P2;Temp;Humidity;BMP_temperature;BMP_pressure;BME280_temperature;BME280_humidity;BME280_pressure;Samples;Min_cycle;Max_cycle;Signal;HPM_P1;HPM_P2
2022/03/05 00:00:45;;;;;;;56.38;18.50;;;;;;;-148.23;100.00;61223.13;4980235;28;20018;-66
2022/03/05 00:03:10;;;;;;;65.63;18.13;;;;;;;-148.23;100.00;61223.13;4977102;28;20034;-66
2022/03/05 00:05:35;;;;;;;56.20;15.98;;;;;;;-148.23;100.00;61223.13;4984174;28;20041;-66
2022/03/05 00:08:03;;;;;;;63.08;16.75;;;;;;;-148.23;100.00;61223.13;4977619;28;20045;-66
2022/03/05 00:10:28;;;;;;;55.15;16.25;;;;;;;-148.23;100.00;61223.13;4979564;28;20567;-66
2022/03/05 00:12:54;;;;;;;70.15;18.92;;;;;;;-148.23;100.00;61223.13;4979449;28;20053;-66
2022/03/05 00:15:20;;;;;;;68.68;18.83;;;;;;;-148.23;100.00;61223.13;4975077;28;20473;-66
2022/03/05 00:17:47;;;;;;;60.20;15.27;;;;;;;-148.23;100.00;61223.13;4969780;28;20046;-66
2022/03/05 00:20:12;;;;;;;65.95;17.23;;;;;;;-148.23;100.00;61223.13;4979213;28;20137;-66
2022/03/05 00:22:37;;;;;;;57.40;16.48;;;;;;;-148.23;100.00;61223.13;4981462;28;20467;-66
2022/03/05 00:25:04;;;;;;;67.60;18.45;;;;;;;-148.23;100.00;61223.13;4982173;28;20038;-66
2022/03/05 00:27:29;;;;;;;71.13;17.20;;;;;;;-148.23;100.00;61223.13;4981842;28;20034;-66
2022/03/05 00:29:55;;;;;;;71.55;19.05;;;;;;;-148.23;100.00;61223.13;4978118;28;20030;-66
2022/03/05 00:32:20;;;;;;;67.18;18.27;;;;;;;-148.23;100.00;61223.13;4979499;28;20034;-66
2022/03/05 00:34:45;;;;;;;58.75;16.58;;;;;;;-148.23;100.00;61223.13;4981876;28;20030;-66
2022/03/05 00:37:11;;;;;;;62.80;17.90;;;;;;;-148.23;100.00;61223.13;4981508;28;20038;-66
2022/03/05 00:39:36;;;;;;;59.10;18.95;;;;;;;-148.23;100.00;61223.13;4963525;28;20841;-66
2022/03/05 00:42:03;;;;;;;63.80;17.88;;;;;;;-148.23;100.00;61223.13;4978924;28;20487;-66
2022/03/05 00:44:28;;;;;;;68.57;17.55;;;;;;;-148.23;100.00;61223.13;4965579;28;20639;-66
2022/03/05 00:46:54;;;;;;;65.80;16.50;;;;;;;-148.23;100.00;61223.13;4963593;28;20121;-66
2022/03/05 00:49:19;;;;;;;66.25;19.15;;;;;;;-148.23;100.00;61223.13;4981434;28;20037;-66
2022/03/05 00:51:45;;;;;;;66.05;17.73;;;;;;;-148.23;100.00;61223.13;4970311;28;20035;-66
2022/03/05 00:54:10;;;;;;;65.95;18.15;;;;;;;-148.23;100.00;61223.13;4977743;28;20088;-66
2022/03/05 00:56:35;;;;;;;55.30;15.35;;;;;;;-148.23;100.00;61223.13;4978864;28;20061;-66
2022/03/05 00:59:01;;;;;;;65.22;16.25;;;;;;;-148.23;100.00;61223.13;4971478;28;20068;-66
2022/03/05 01:01:26;;;;;;;61.10;17.70;;;;;;;-148.23;100.00;61223.13;4964405;28;20041;-66
2022/03/05 01:03:52;;;;;;;73.13;18.95;;;;;;;-148.23;100.00;61223.13;4964546;28;20112;-66
2022/03/05 01:06:17;;;;;;;65.18;16.75;;;;;;;-148.23;100.00;61223.13;4982633;28;20093;-66
2022/03/05 01:08:43;;;;;;;70.28;15.55;;;;;;;-148.23;100.00;61223.13;4976943;28;20034;-66
2022/03/05 01:11:08;;;;;;;62.65;16.10;;;;;;;-148.23;100.00;61223.13;4986380;28;20050;-66
2022/03/05 01:13:35;;;;;;;64.50;17.30;;;;;;;-148.23;100.00;61223.13;4980442;28;20030;-66
2022/03/05 01:16:00;;;;;;;69.30;17.92;;;;;;;-148.23;100.00;61223.13;4988386;28;20419;-66
2022/03/05 01:18:25;;;;;;;66.20;16.13;;;;;;;-148.23;100.00;61223.13;4985560;28;20026;-66
2022/03/05 01:20:51;;;;;;;62.90;16.63;;;;;;;-148.23;100.00;61223.13;4988958;28;20118;-66
2022/03/05 01:23:16;;;;;;;63.95;15.10;;;;;;;-148.23;100.00;61223.13;4984228;28;20030;-66
2022/03/05 01:25:41;;;;;;;64.90;16.05;;;;;;;-148.23;100.00;61223.13;4987557;28;20038;-66
2022/03/05 01:28:07;;;;;;;66.78;16.08;;;;;;;-148.23;100.00;61223.13;4987744;28;20038;-66
2022/03/05 01:30:33;;;;;;;78.05;20.40;;;;;;;-148.23;100.00;61223.13;4985876;28;20057;-66
2022/03/05 01:32:59;;;;;;;58.28;18.52;;;;;;;-148.23;100.00;61223.13;4977266;28;20378;-66
2022/03/05 01:35:24;;;;;;;73.30;19.13;;;;;;;-148.23;100.00;61223.13;4986235;28;20886;-66
2022/03/05 01:37:49;;;;;;;66.32;18.02;;;;;;;-148.23;100.00;61223.13;4984137;28;20025;-66
2022/03/05 01:40:15;;;;;;;65.38;16.75;;;;;;;-148.23;100.00;61223.13;4965046;28;20073;-66
2022/03/05 01:42:40;;;;;;;63.55;16.67;;;;;;;-148.23;100.00;61223.13;4967419;28;20069;-66
2022/03/05 01:45:06;;;;;;;71.40;18.58;;;;;;;-148.23;100.00;61223.13;4981792;28;20480;-66
2022/03/05 01:47:31;;;;;;;69.93;17.48;;;;;;;-148.23;100.00;61223.13;4985338;28;20477;-66
2022/03/05 01:49:56;;;;;;;60.58;16.70;;;;;;;-148.23;100.00;61223.13;4963239;28;20409;-66
2022/03/05 01:52:22;;;;;;;69.72;18.55;;;;;;;-148.23;100.00;61223.13;4983397;28;20030;-66
2022/03/05 01:54:48;;;;;;;68.13;16.92;;;;;;;-148.23;100.00;61223.13;4982386;28;20073;-66
2022/03/05 01:57:13;;;;;;;64.43;16.60;;;;;;;-148.23;100.00;61223.13;4977659;28;20037;-66
2022/03/05 01:59:39;;;;;;;82.35;19.00;;;;;;;-148.23;100.00;61223.13;4985138;28;20120;-66
2022/03/05 02:02:04;;;;;;;79.30;18.70;;;;;;;-148.23;100.00;61223.13;4969416;28;20034;-66
2022/03/05 02:04:29;;;;;;;58.63;17.65;;;;;;;-148.23;100.00;61223.13;4984912;28;20425;-66
2022/03/05 02:06:55;;;;;;;73.70;19.23;;;;;;;-148.23;100.00;61223.13;4961997;28;20073;-66
2022/03/05 02:09:20;;;;;;;69.20;17.70;;;;;;;-148.23;100.00;61223.13;4985599;28;20400;-66
2022/03/05 02:11:45;;;;;;;70.50;16.98;;;;;;;-148.23;100.00;61223.13;4984862;28;20037;-66
2022/03/05 02:14:11;;;;;;;78.72;18.38;;;;;;;-148.23;100.00;61223.13;4983466;28;20056;-66
2022/03/05 02:16:36;;;;;;;68.28;16.92;;;;;;;-148.23;100.00;61223.13;4984791;28;20029;-66
2022/03/05 02:19:04;;;;;;;58.53;16.25;;;;;;;-148.23;100.00;61223.13;4985174;28;20026;-66
2022/03/05 02:21:30;;;;;;;65.97;16.73;;;;;;;-148.23;100.00;61223.13;4983847;28;20044;-66
2022/03/05 02:23:55;;;;;;;76.28;17.63;;;;;;;-148.23;100.00;61223.13;4979893;28;20035;-66
2022/03/05 02:26:22;;;;;;;72.15;17.48;;;;;;;-148.23;100.00;61223.13;4986252;28;20678;-66
2022/03/05 02:28:48;;;;;;;62.80;16.42;;;;;;;-148.23;100.00;61223.13;4980655;28;20030;-66
2022/03/05 02:31:13;;;;;;;77.55;17.30;;;;;;;-148.23;100.00;61223.13;4975837;28;20045;-66
2022/03/05 02:33:39;;;;;;;69.45;18.08;;;;;;;-148.23;100.00;61223.13;4980030;28;20117;-66
2022/03/05 02:36:04;;;;;;;64.45;17.77;;;;;;;-148.23;100.00;61223.13;4966333;28;20369;-66
2022/03/05 02:38:30;;;;;;;71.72;18.58;;;;;;;-148.23;100.00;61223.13;4981571;28;20434;-66
2022/03/05 02:40:55;;;;;;;69.70;18.60;;;;;;;-148.23;100.00;61223.13;4984072;28;20030;-66
2022/03/05 02:43:21;;;;;;;73.55;17.92;;;;;;;-148.23;100.00;61223.13;4964739;28;20153;-66
2022/03/05 02:45:47;;;;;;;85.25;19.90;;;;;;;-148.23;100.00;61223.13;4977258;28;20038;-66
2022/03/05 02:48:14;;;;;;;83.47;20.75;;;;;;;-148.23;100.00;61223.13;4980266;28;20777;-66
2022/03/05 02:50:41;;;;;;;59.30;16.05;;;;;;;-148.23;100.00;61223.13;4983140;28;20038;-66
2022/03/05 02:53:06;;;;;;;84.80;19.77;;;;;;;-148.23;100.00;61223.13;4975503;28;20026;-66
2022/03/05 02:55:33;;;;;;;74.15;17.90;;;;;;;-148.23;100.00;61223.13;4977891;28;20053;-66
2022/03/05 02:57:58;;;;;;;80.28;18.42;;;;;;;-148.23;100.00;61223.13;4980275;28;20034;-66
2022/03/05 03:00:24;;;;;;;58.78;15.93;;;;;;;-148.23;100.00;61223.13;4983049;28;20057;-67
2022/03/05 03:02:49;;;;;;;85.45;20.00;;;;;;;-148.23;100.00;61223.13;4978390;28;20084;-66
2022/03/05 03:05:16;;;;;;;85.03;20.33;;;;;;;-148.23;100.00;61223.13;4979136;28;20125;-66
2022/03/05 03:07:42;;;;;;;78.15;17.95;;;;;;;-148.23;100.00;61223.13;4981305;28;20049;-66
2022/03/05 03:10:08;;;;;;;70.22;18.00;;;;;;;-148.23;100.00;61223.13;4982138;28;20034;-66
2022/03/05 03:12:33;;;;;;;77.28;18.92;;;;;;;-148.23;100.00;61223.13;4982663;28;20403;-66
2022/03/05 03:14:59;;;;;;;60.40;16.52;;;;;;;-148.23;100.00;61223.13;4979148;28;20034;-66
2022/03/05 03:17:24;;;;;;;71.57;18.60;;;;;;;-148.23;100.00;61223.13;4982336;28;20116;-66
2022/03/05 03:19:49;;;;;;;68.00;19.70;;;;;;;-148.23;100.00;61223.13;4974762;28;20041;-66
2022/03/05 03:22:15;;;;;;;77.47;16.95;;;;;;;-148.23;100.00;61223.13;4982921;28;20042;-66
2022/03/05 03:24:41;;;;;;;76.38;18.02;;;;;;;-148.23;100.00;61223.13;4981344;28;20392;-66
2022/03/05 03:27:07;;;;;;;71.03;19.75;;;;;;;-148.23;100.00;61223.13;4975277;28;20177;-67
2022/03/05 03:29:32;;;;;;;73.22;17.40;;;;;;;-148.23;100.00;61223.13;4959112;28;20392;-66
2022/03/05 03:31:57;;;;;;;73.43;17.20;;;;;;;-148.23;100.00;61223.13;4974759;28;20117;-66
2022/03/05 03:34:23;;;;;;;85.68;19.63;;;;;;;-148.23;100.00;61223.13;4980661;28;20550;-67
2022/03/05 03:36:48;;;;;;;73.70;19.15;;;;;;;-148.23;100.00;61223.13;4970129;28;20026;-66
2022/03/05 03:39:14;;;;;;;68.90;19.15;;;;;;;-148.23;100.00;61223.13;4980601;28;20523;-66
2022/03/05 03:41:39;;;;;;;62.10;18.85;;;;;;;-148.23;100.00;61223.13;4982553;28;20034;-66
2022/03/05 03:44:05;;;;;;;86.82;19.50;;;;;;;-148.23;100.00;61223.13;4981520;28;20480;-66
2022/03/05 03:46:30;;;;;;;79.63;19.50;;;;;;;-148.23;100.00;61223.13;4980702;28;20058;-66
2022/03/05 03:48:55;;;;;;;69.53;17.38;;;;;;;-148.23;100.00;61223.13;4979302;28;20496;-66
2022/03/05 03:51:21;;;;;;;71.55;17.10;;;;;;;-148.23;100.00;61223.13;4982445;28;20467;-66
2022/03/05 03:53:46;;;;;;;69.97;17.00;;;;;;;-148.23;100.00;61223.13;4981494;28;20457;-66
2022/03/05 03:56:12;;;;;;;72.93;17.98;;;;;;;-148.23;100.00;61223.13;4975448;28;20061;-66
2022/03/05 03:58:37;;;;;;;80.20;18.58;;;;;;;-148.23;100.00;61223.13;4983803;28;20027;-66
2022/03/05 04:01:03;;;;;;;81.15;18.77;;;;;;;-148.23;100.00;61223.13;4973891;28;20038;-66
2022/03/05 04:03:28;;;;;;;84.95;22.23;;;;;;;-148.23;100.00;61223.13;4977769;28;20037;-66
2022/03/05 04:05:53;;;;;;;99.82;19.08;;;;;;;-148.23;100.00;61223.13;4981182;28;20692;-66
2022/03/05 04:11:04;;;;;;;76.90;19.40;;;;;;;-148.23;100.00;61223.13;4976930;28;20041;-66
2022/03/05 04:13:29;;;;;;;74.47;19.52;;;;;;;-148.23;100.00;61223.13;4982634;28;20499;-67
2022/03/05 04:15:54;;;;;;;82.97;19.75;;;;;;;-148.23;100.00;61223.13;4980434;28;20026;-66
2022/03/05 04:18:20;;;;;;;70.55;16.90;;;;;;;-148.23;100.00;61223.13;4974438;28;20273;-66
2022/03/05 04:20:45;;;;;;;89.95;22.27;;;;;;;-148.23;100.00;61223.13;4980116;28;20034;-67
2022/03/05 04:23:10;;;;;;;79.38;21.05;;;;;;;-148.23;100.00;61223.13;4982551;28;20113;-66
2022/03/05 04:25:35;;;;;;;82.90;20.92;;;;;;;-148.23;100.00;61223.13;4975491;28;20072;-66
2022/03/05 04:28:01;;;;;;;93.97;20.90;;;;;;;-148.23;100.00;61223.13;4981246;28;20042;-66
2022/03/05 04:30:26;;;;;;;87.45;21.55;;;;;;;-148.23;100.00;61223.13;4978616;28;20073;-67
2022/03/05 04:32:51;;;;;;;82.13;21.55;;;;;;;-148.23;100.00;61223.13;4980563;28;20453;-66
2022/03/05 04:35:17;;;;;;;78.13;19.98;;;;;;;-148.23;100.00;61223.13;4978798;28;20529;-66
2022/03/05 04:37:42;;;;;;;75.03;18.77;;;;;;;-148.23;100.00;61223.13;4983127;28;20030;-66
2022/03/05 04:40:08;;;;;;;70.47;18.63;;;;;;;-148.23;100.00;61223.13;4974346;28;20062;-66
2022/03/05 04:42:34;;;;;;;78.32;20.63;;;;;;;-148.23;100.00;61223.13;4981200;28;20400;-67
2022/03/05 04:44:59;;;;;;;70.93;18.80;;;;;;;-148.23;100.00;61223.13;4960038;28;20041;-66
2022/03/05 04:47:25;;;;;;;66.10;20.42;;;;;;;-148.23;100.00;61223.13;4983439;28;20109;-66
2022/03/05 04:49:50;;;;;;;65.15;17.33;;;;;;;-148.23;100.00;61223.13;4978834;28;20038;-67
2022/03/05 04:52:15;;;;;;;80.50;20.73;;;;;;;-148.23;100.00;61223.13;4980285;28;20034;-67
2022/03/05 04:54:41;;;;;;;75.95;21.00;;;;;;;-148.23;100.00;61223.13;4977812;28;20042;-67
2022/03/05 04:57:07;;;;;;;90.32;22.92;;;;;;;-148.23;100.00;61223.13;4964819;28;20057;-66
2022/03/05 04:59:32;;;;;;;90.10;20.73;;;;;;;-148.23;100.00;61223.13;4975068;28;20229;-66
2022/03/05 05:01:58;;;;;;;83.22;23.00;;;;;;;-148.23;100.00;61223.13;4955630;28;20067;-66
2022/03/05 05:04:23;;;;;;;84.88;19.23;;;;;;;-148.23;100.00;61223.13;4979837;28;20037;-66
2022/03/05 05:06:49;;;;;;;78.50;19.83;;;;;;;-148.23;100.00;61223.13;4978725;28;20550;-67
2022/03/05 05:09:14;;;;;;;79.30;19.38;;;;;;;-148.23;100.00;61223.13;4972014;28;20114;-66
2022/03/05 05:11:40;;;;;;;94.53;20.33;;;;;;;-148.23;100.00;61223.13;4978089;28;20068;-67
2022/03/05 05:14:06;;;;;;;87.10;20.50;;;;;;;-148.23;100.00;61223.13;4980129;28;20045;-67
2022/03/05 05:16:31;;;;;;;85.13;21.58;;;;;;;-148.23;100.00;61223.13;4980633;28;20391;-66
2022/03/05 05:21:40;;;;;;;80.68;19.65;;;;;;;-148.23;100.00;61223.13;4979444;28;20037;-67
2022/03/05 05:24:06;;;;;;;84.50;19.60;;;;;;;-148.23;100.00;61223.13;4987229;28;20030;-67
2022/03/05 05:26:31;;;;;;;82.72;21.58;;;;;;;-148.23;100.00;61223.13;4978603;28;20988;-66
2022/03/05 05:28:56;;;;;;;88.57;21.77;;;;;;;-148.23;100.00;61223.13;4980472;28;20045;-66
2022/03/05 05:31:22;;;;;;;78.43;21.75;;;;;;;-148.23;100.00;61223.13;4977652;28;21074;-67
2022/03/05 05:33:49;;;;;;;82.35;20.88;;;;;;;-148.23;100.00;61223.13;4979748;28;20034;-67
2022/03/05 05:36:14;;;;;;;87.80;20.52;;;;;;;-148.23;100.00;61223.13;4960512;28;20434;-67
2022/03/05 05:38:40;;;;;;;91.28;20.80;;;;;;;-148.23;100.00;61223.13;4976029;28;20030;-66
2022/03/05 05:41:06;;;;;;;81.05;20.83;;;;;;;-148.23;100.00;61223.13;4977329;28;20035;-66
2022/03/05 05:43:31;;;;;;;98.28;21.80;;;;;;;-148.23;100.00;61223.13;4981165;28;20029;-66
2022/03/05 05:45:57;;;;;;;80.00;20.10;;;;;;;-148.23;100.00;61223.13;4978446;28;20036;-66
2022/03/05 05:48:22;;;;;;;81.57;20.00;;;;;;;-148.23;100.00;61223.13;4981407;28;20511;-66
2022/03/05 05:50:47;;;;;;;97.78;19.90;;;;;;;-148.23;100.00;61223.13;4976584;28;20105;-66
2022/03/05 05:53:12;;;;;;;78.13;18.98;;;;;;;-148.23;100.00;61223.13;4980816;28;20034;-66
2022/03/05 05:55:38;;;;;;;88.78;23.23;;;;;;;-148.23;100.00;61223.13;4978233;28;20030;-66
2022/03/05 05:58:03;;;;;;;87.70;22.00;;;;;;;-148.23;100.00;61223.13;4982052;28;20033;-66
2022/03/05 06:00:29;;;;;;;90.82;21.48;;;;;;;-148.23;100.00;61223.13;4961129;28;20084;-66
2022/03/05 06:02:54;;;;;;;98.35;23.33;;;;;;;-148.23;100.00;61223.13;4980532;28;20465;-66
2022/03/05 06:05:19;;;;;;;89.80;24.08;;;;;;;-148.23;100.00;61223.13;4980686;28;20049;-67
2022/03/05 06:07:45;;;;;;;95.88;21.48;;;;;;;-148.23;100.00;61223.13;4983062;28;20039;-67
2022/03/05 06:10:10;;;;;;;83.20;21.70;;;;;;;-148.23;100.00;61223.13;4981552;28;20050;-67
2022/03/05 06:12:36;;;;;;;92.88;21.38;;;;;;;-148.23;100.00;61223.13;4979261;28;20026;-67
2022/03/05 06:15:03;;;;;;;100.63;23.55;;;;;;;-148.23;100.00;61223.13;4981461;28;20121;-66
2022/03/05 06:17:29;;;;;;;95.13;22.73;;;;;;;-148.23;100.00;61223.13;4982145;28;20037;-66
2022/03/05 06:19:54;;;;;;;91.93;20.83;;;;;;;-148.23;100.00;61223.13;4983016;28;20030;-67
2022/03/05 06:22:19;;;;;;;110.68;23.63;;;;;;;-148.23;100.00;61223.13;4982524;28;20434;-66
2022/03/05 06:24:45;;;;;;;109.28;22.80;;;;;;;-148.23;100.00;61223.13;4982272;28;20085;-67
2022/03/05 06:27:10;;;;;;;81.97;21.13;;;;;;;-148.23;100.00;61223.13;4981646;28;20092;-67
2022/03/05 06:29:35;;;;;;;88.85;23.10;;;;;;;-148.23;100.00;61223.13;4982527;28;20034;-67
2022/03/05 06:32:01;;;;;;;91.50;21.63;;;;;;;-148.23;100.00;61223.13;4955721;28;20022;-66
2022/03/05 06:34:27;;;;;;;94.93;22.67;;;;;;;-148.23;100.00;61223.13;4984362;28;20038;-67
2022/03/05 06:36:54;;;;;;;88.30;20.05;;;;;;;-148.23;100.00;61223.13;4966654;28;20030;-67
2022/03/05 06:39:19;;;;;;;96.15;21.98;;;;;;;-148.23;100.00;61223.13;4984158;28;20030;-66
2022/03/05 06:41:45;;;;;;;98.28;25.10;;;;;;;-148.23;100.00;61223.13;4979969;28;20106;-66
2022/03/05 06:44:10;;;;;;;94.15;22.65;;;;;;;-148.23;100.00;61223.13;4983109;28;20042;-67
2022/03/05 06:46:35;;;;;;;88.10;23.52;;;;;;;-148.23;100.00;61223.13;4963293;28;20531;-66
2022/03/05 06:49:01;;;;;;;94.20;21.08;;;;;;;-148.23;100.00;61223.13;4967889;28;20026;-67
2022/03/05 06:51:26;;;;;;;95.53;23.42;;;;;;;-148.23;100.00;61223.13;4978610;28;20149;-67
2022/03/05 06:53:52;;;;;;;92.18;20.15;;;;;;;-148.23;100.00;61223.13;4989117;28;20128;-67
2022/03/05 06:56:17;;;;;;;92.20;21.70;;;;;;;-148.23;100.00;61223.13;4983892;28;20018;-67
2022/03/05 06:58:42;;;;;;;83.35;22.75;;;;;;;-148.23;100.00;61223.13;4973872;28;20034;-66
2022/03/05 07:01:08;;;;;;;103.38;22.73;;;;;;;-148.23;100.00;61223.13;4979953;28;20367;-67
2022/03/05 07:03:33;;;;;;;83.43;21.23;;;;;;;-148.23;100.00;61223.13;4982624;28;20052;-67
2022/03/05 07:05:58;;;;;;;108.00;22.75;;;;;;;-148.23;100.00;61223.13;4980996;28;20540;-66
2022/03/05 07:08:24;;;;;;;95.20;23.85;;;;;;;-148.23;100.00;61223.13;4981056;28;20033;-67
2022/03/05 07:10:49;;;;;;;99.10;22.45;;;;;;;-148.23;100.00;61223.13;4981122;28;20038;-67
2022/03/05 07:13:14;;;;;;;113.10;24.77;;;;;;;-148.23;100.00;61223.13;4983929;28;20054;-66
2022/03/05 07:15:40;;;;;;;117.50;24.90;;;;;;;-148.23;100.00;61223.13;4978842;28;20034;-66
2022/03/05 07:18:05;;;;;;;106.70;24.63;;;;;;;-148.23;100.00;61223.13;4982119;28;20058;-67
2022/03/05 07:20:31;;;;;;;97.18;21.90;;;;;;;-148.23;100.00;61223.13;4980627;28;20034;-66
2022/03/05 07:22:56;;;;;;;97.75;24.63;;;;;;;-148.23;100.00;61223.13;4963596;28;20057;-66
2022/03/05 07:25:21;;;;;;;93.95;22.25;;;;;;;-148.23;100.00;61223.13;4979016;28;20038;-66
2022/03/05 07:27:46;;;;;;;101.88;23.13;;;;;;;-148.23;100.00;61223.13;4981277;28;20073;-66
2022/03/05 07:30:12;;;;;;;93.22;22.65;;;;;;;-148.23;100.00;61223.13;4979247;28;20030;-66
2022/03/05 07:32:38;;;;;;;103.97;23.65;;;;;;;-148.23;100.00;61223.13;4982044;28;20121;-66
2022/03/05 07:35:04;;;;;;;104.40;23.80;;;;;;;-148.23;100.00;61223.13;4984276;28;20040;-66
2022/03/05 07:37:30;;;;;;;114.78;24.38;;;;;;;-148.23;100.00;61223.13;4965126;28;20041;-66
2022/03/05 07:39:56;;;;;;;100.75;24.83;;;;;;;-148.23;100.00;61223.13;4967195;28;20034;-65
2022/03/05 07:42:22;;;;;;;98.00;23.80;;;;;;;-148.23;100.00;61223.13;4958273;28;20144;-66
2022/03/05 07:44:47;;;;;;;88.68;21.98;;;;;;;-148.23;100.00;61223.13;4984144;28;20018;-66
2022/03/05 07:47:12;;;;;;;109.30;23.05;;;;;;;-148.23;100.00;61223.13;4982450;28;20443;-66
2022/03/05 07:49:37;;;;;;;107.25;25.13;;;;;;;-148.23;100.00;61223.13;4975830;28;20126;-66
2022/03/05 07:52:03;;;;;;;111.95;25.75;;;;;;;-148.23;100.00;61223.13;4980777;28;20034;-66
2022/03/05 07:54:29;;;;;;;123.07;26.80;;;;;;;-148.23;100.00;61223.13;4981479;28;20459;-66
2022/03/05 07:56:54;;;;;;;123.60;26.98;;;;;;;-148.23;100.00;61223.13;4980524;28;20508;-66
2022/03/05 07:59:20;;;;;;;127.80;30.50;;;;;;;-148.23;100.00;61223.13;4976041;28;20113;-66
2022/03/05 08:01:46;;;;;;;125.38;29.13;;;;;;;-148.23;100.00;61223.13;4976322;28;20061;-66
2022/03/05 08:04:11;;;;;;;116.57;26.90;;;;;;;-148.23;100.00;61223.13;4984424;28;20117;-67
2022/03/05 08:06:37;;;;;;;118.60;26.63;;;;;;;-148.23;100.00;61223.13;4980512;28;20061;-66
2022/03/05 08:09:02;;;;;;;123.63;30.08;;;;;;;-148.23;100.00;61223.13;4966065;28;20033;-66
2022/03/05 08:11:27;;;;;;;127.88;26.30;;;;;;;-148.23;100.00;61223.13;4977913;28;20493;-66
2022/03/05 08:13:53;;;;;;;116.57;26.45;;;;;;;-148.23;100.00;61223.13;4983928;28;20507;-66
2022/03/05 08:16:18;;;;;;;105.45;25.77;;;;;;;-148.23;100.00;61223.13;4962066;28;20045;-67
2022/03/05 08:18:43;;;;;;;120.05;26.70;;;;;;;-148.23;100.00;61223.13;4976864;28;20034;-67
2022/03/05 08:21:09;;;;;;;133.85;27.98;;;;;;;-148.23;100.00;61223.13;4972607;28;20038;-66
2022/03/05 08:23:34;;;;;;;118.45;25.67;;;;;;;-148.23;100.00;61223.13;4981640;28;20034;-67
2022/03/05 08:25:59;;;;;;;117.43;28.15;;;;;;;-148.23;100.00;61223.13;4978849;28;20048;-66
2022/03/05 08:28:25;;;;;;;133.15;28.17;;;;;;;-148.23;100.00;61223.13;4979815;28;20516;-66
2022/03/05 08:30:50;;;;;;;117.97;26.48;;;;;;;-148.23;100.00;61223.13;4978864;28;20030;-66
2022/03/05 08:33:17;;;;;;;124.25;26.40;;;;;;;-148.23;100.00;61223.13;4977964;28;20037;-66
2022/03/05 08:35:42;;;;;;;121.32;27.23;;;;;;;-148.23;100.00;61223.13;4978091;28;20038;-66
2022/03/05 08:38:07;;;;;;;139.70;34.90;;;;;;;-148.23;100.00;61223.13;4979317;28;20032;-66
2022/03/05 08:40:33;;;;;;;127.65;27.35;;;;;;;-148.23;100.00;61223.13;4980792;28;20045;-66
2022/03/05 08:42:58;;;;;;;145.98;30.23;;;;;;;-148.23;100.00;61223.13;4979975;28;20030;-66
2022/03/05 08:45:24;;;;;;;144.50;32.35;;;;;;;-148.23;100.00;61223.13;4978339;28;20034;-66
2022/03/05 08:47:50;;;;;;;131.68;27.80;;;;;;;-148.23;100.00;61223.13;4973425;28;20038;-66
2022/03/05 08:50:15;;;;;;;140.60;29.17;;;;;;;-148.23;100.00;61223.13;4980322;28;20038;-66
2022/03/05 08:52:41;;;;;;;134.65;29.48;;;;;;;-148.23;100.00;61223.13;4979084;28;20388;-66
2022/03/05 08:55:09;;;;;;;163.48;38.92;;;;;;;-148.23;100.00;61223.13;4979584;28;20034;-66
2022/03/05 08:57:35;;;;;;;150.52;30.08;;;;;;;-148.23;100.00;61223.13;4982135;28;20590;-66
2022/03/05 09:00:00;;;;;;;132.13;29.45;;;;;;;-148.23;100.00;61223.13;4981658;28;20654;-66
2022/03/05 09:02:25;;;;;;;144.48;31.15;;;;;;;-148.23;100.00;61223.13;4979026;28;20480;-66
2022/03/05 09:04:51;;;;;;;124.63;28.25;;;;;;;-148.23;100.00;61223.13;4977503;28;20516;-66
2022/03/05 09:07:16;;;;;;;152.10;30.33;;;;;;;-148.23;100.00;61223.13;4978195;28;20238;-66
2022/03/05 09:09:41;;;;;;;151.93;30.63;;;;;;;-148.23;100.00;61223.13;4982390;28;20034;-66
2022/03/05 09:12:07;;;;;;;147.65;34.67;;;;;;;-148.23;100.00;61223.13;4976978;28;20062;-66
2022/03/05 09:14:33;;;;;;;151.32;33.90;;;;;;;-148.23;100.00;61223.13;4980131;28;20034;-66
2022/03/05 09:16:58;;;;;;;129.07;30.20;;;;;;;-148.23;100.00;61223.13;4973284;28;20053;-67
2022/03/05 09:19:23;;;;;;;144.88;30.30;;;;;;;-148.23;100.00;61223.13;4978389;28;20113;-67
2022/03/05 09:21:49;;;;;;;128.90;29.88;;;;;;;-148.23;100.00;61223.13;4977072;28;20034;-66
2022/03/05 09:24:14;;;;;;;132.95;28.92;;;;;;;-148.23;100.00;61223.13;4981069;28;20034;-66
2022/03/05 09:26:39;;;;;;;160.10;35.20;;;;;;;-148.23;100.00;61223.13;4975881;28;20038;-66
2022/03/05 09:29:05;;;;;;;152.25;31.05;;;;;;;-148.23;100.00;61223.13;4979862;28;20400;-66
2022/03/05 09:31:31;;;;;;;133.48;29.48;;;;;;;-148.23;100.00;61223.13;4970386;28;20473;-66
2022/03/05 09:33:57;;;;;;;133.73;31.58;;;;;;;-148.23;100.00;61223.13;4978828;28;20164;-66
2022/03/05 09:36:22;;;;;;;143.38;33.28;;;;;;;-148.23;100.00;61223.13;4963305;28;20426;-66
2022/03/05 09:38:48;;;;;;;147.15;33.03;;;;;;;-148.23;100.00;61223.13;4974853;28;20462;-66
2022/03/05 09:41:13;;;;;;;147.05;30.13;;;;;;;-148.23;100.00;61223.13;4982446;28;20026;-66
2022/03/05 09:43:39;;;;;;;156.05;34.03;;;;;;;-148.23;100.00;61223.13;4973411;28;20081;-66
2022/03/05 09:46:04;;;;;;;157.82;34.50;;;;;;;-148.23;100.00;61223.13;4981894;28;20365;-66
2022/03/05 09:48:30;;;;;;;152.93;32.92;;;;;;;-148.23;100.00;61223.13;4974137;28;20038;-67
2022/03/05 09:50:56;;;;;;;142.43;31.33;;;;;;;-148.23;100.00;61223.13;4985633;28;20200;-66
2022/03/05 09:53:27;;;;;;;154.63;33.30;;;;;;;-148.23;100.00;61223.13;4980927;28;20077;-66
2022/03/05 09:55:52;;;;;;;156.43;36.47;;;;;;;-148.23;100.00;61223.13;4983552;28;20026;-66
2022/03/05 09:58:18;;;;;;;151.88;33.78;;;;;;;-148.23;100.00;61223.13;4981650;28;20613;-66
2022/03/05 10:00:46;;;;;;;157.98;35.67;;;;;;;-148.23;100.00;61223.13;4984235;28;20425;-66
2022/03/05 10:03:12;;;;;;;157.00;35.65;;;;;;;-148.23;100.00;61223.13;4981339;28;20026;-66
2022/03/05 10:05:38;;;;;;;149.80;31.38;;;;;;;-148.23;100.00;61223.13;4983225;28;20420;-66
2022/03/05 10:08:10;;;;;;;150.02;33.53;;;;;;;-148.23;100.00;61223.13;4979245;28;20030;-66
2022/03/05 10:10:59;;;;;;;125.38;30.98;;;;;;;-148.23;100.00;61223.13;4987421;28;20672;-66
2022/03/05 10:13:30;;;;;;;148.25;32.38;;;;;;;-148.23;100.00;61223.13;4980304;28;20432;-66
2022/03/05 10:15:59;;;;;;;156.43;35.47;;;;;;;-148.23;100.00;61223.13;4984987;28;20104;-66
2022/03/05 10:18:32;;;;;;;144.65;33.50;;;;;;;-148.23;100.00;61223.13;4976524;28;20056;-66
2022/03/05 10:20:59;;;;;;;141.48;32.00;;;;;;;-148.23;100.00;61223.13;4984139;28;20033;-66
2022/03/05 10:23:25;;;;;;;123.22;29.83;;;;;;;-148.23;100.00;61223.13;4974387;28;20037;-66
2022/03/05 10:25:52;;;;;;;158.57;34.70;;;;;;;-148.23;100.00;61223.13;4979553;28;20031;-66
2022/03/05 10:28:25;;;;;;;154.65;34.65;;;;;;;-148.23;100.00;61223.13;4981265;28;20030;-66
2022/03/05 10:30:58;;;;;;;141.63;33.75;;;;;;;-148.23;100.00;61223.13;4981369;28;20022;-66
2022/03/05 10:33:23;;;;;;;142.85;35.25;;;;;;;-148.23;100.00;61223.13;4983213;28;20399;-66
2022/03/05 10:35:49;;;;;;;146.70;34.70;;;;;;;-148.23;100.00;61223.13;4984878;28;20045;-66
2022/03/05 10:38:14;;;;;;;159.05;37.83;;;;;;;-148.23;100.00;61223.13;4984123;28;20034;-66
2022/03/05 10:40:39;;;;;;;143.05;34.67;;;;;;;-148.23;100.00;61223.13;4981968;28;20034;-66
2022/03/05 10:43:06;;;;;;;150.10;33.17;;;;;;;-148.23;100.00;61223.13;4982807;28;20042;-66
2022/03/05 10:45:51;;;;;;;134.13;30.98;;;;;;;-148.23;100.00;61223.13;4965779;28;20034;-66
2022/03/05 10:48:30;;;;;;;151.02;35.45;;;;;;;-148.23;100.00;61223.13;4984643;28;20571;-66
2022/03/05 10:50:56;;;;;;;142.57;33.13;;;;;;;-148.23;100.00;61223.13;4978537;28;20038;-66